sensor_id;sensor_type;location;lat;lon;timestamp;temperature;humidity
24326;DHT22;12448;45.532;5.290;2023-11-18T00:01:25;8.60;94.70
24326;DHT22;12448;45.532;5.290;2023-11-18T00:03:51;8.20;94.50
24326;DHT22;12448;45.532;5.290;2023-11-18T00:06:17;8.50;94.60
24326;DHT22;12448;45.532;5.290;2023-11-18T00:08:42;8.40;94.60
24326;DHT22;12448;45.532;5.290;2023-11-18T00:11:09;8.30;94.60
24326;DHT22;12448;45.532;5.290;2023-11-18T00:13:36;8.80;94.70
24326;DHT22;12448;45.532;5.290;2023-11-18T00:16:05;8.20;94.50
24326;DHT22;12448;45.532;5.290;2023-11-18T00:18:31;8.10;94.50
24326;DHT22;12448;45.532;5.290;2023-11-18T00:20:58;8.10;94.70
24326;DHT22;12448;45.532;5.290;2023-11-18T00:23:24;8.20;94.90
24326;DHT22;12448;45.532;5.290;2023-11-18T00:25:52;8.30;94.90
24326;DHT22;12448;45.532;5.290;2023-11-18T00:28:18;8.30;94.80
24326;DHT22;12448;45.532;5.290;2023-11-18T00:30:45;8.40;94.70
24326;DHT22;12448;45.532;5.290;2023-11-18T00:33:11;8.40;94.60
24326;DHT22;12448;45.532;5.290;2023-11-18T00:35:37;8.40;94.60
24326;DHT22;12448;45.532;5.290;2023-11-18T00:38:05;8.40;94.40
24326;DHT22;12448;45.532;5.290;2023-11-18T00:40:31;8.40;94.40
24326;DHT22;12448;45.532;5.290;2023-11-18T00:42:57;8.40;94.40
24326;DHT22;12448;45.532;5.290;2023-11-18T00:45:23;8.40;94.30
24326;DHT22;12448;45.532;5.290;2023-11-18T00:47:48;8.50;94.30
24326;DHT22;12448;45.532;5.290;2023-11-18T00:50:14;8.70;94.50
24326;DHT22;12448;45.532;5.290;2023-11-18T00:52:40;8.40;94.50
24326;DHT22;12448;45.532;5.290;2023-11-18T00:55:08;8.30;94.50
24326;DHT22;12448;45.532;5.290;2023-11-18T00:57:36;8.40;94.50
24326;DHT22;12448;45.532;5.290;2023-11-18T01:00:08;8.40;94.50
24326;DHT22;12448;45.532;5.290;2023-11-18T01:02:40;8.40;94.50
24326;DHT22;12448;45.532;5.290;2023-11-18T01:05:06;8.50;94.50
24326;DHT22;12448;45.532;5.290;2023-11-18T01:07:32;8.50;94.40
24326;DHT22;12448;45.532;5.290;2023-11-18T01:09:58;8.40;94.50
24326;DHT22;12448;45.532;5.290;2023-11-18T01:12:23;8.60;94.50
24326;DHT22;12448;45.532;5.290;2023-11-18T01:14:50;8.40;94.40
24326;DHT22;12448;45.532;5.290;2023-11-18T01:17:16;8.40;94.50
24326;DHT22;12448;45.532;5.290;2023-11-18T01:19:42;8.40;94.60
24326;DHT22;12448;45.532;5.290;2023-11-18T01:22:07;8.40;94.40
24326;DHT22;12448;45.532;5.290;2023-11-18T01:24:34;8.50;94.40
24326;DHT22;12448;45.532;5.290;2023-11-18T01:27:00;8.30;94.20
24326;DHT22;12448;45.532;5.290;2023-11-18T01:29:26;8.30;94.20
24326;DHT22;12448;45.532;5.290;2023-11-18T01:31:52;8.30;94.20
24326;DHT22;12448;45.532;5.290;2023-11-18T01:34:18;8.40;94.20
24326;DHT22;12448;45.532;5.290;2023-11-18T01:36:49;8.70;94.30
24326;DHT22;12448;45.532;5.290;2023-11-18T01:39:18;8.30;94.30
24326;DHT22;12448;45.532;5.290;2023-11-18T01:41:44;8.30;94.30
24326;DHT22;12448;45.532;5.290;2023-11-18T01:44:10;8.50;94.30
24326;DHT22;12448;45.532;5.290;2023-11-18T01:46:40;8.30;94.30
24326;DHT22;12448;45.532;5.290;2023-11-18T01:49:07;8.20;94.20
24326;DHT22;12448;45.532;5.290;2023-11-18T01:51:33;8.20;94.30
24326;DHT22;12448;45.532;5.290;2023-11-18T01:54:01;8.10;94.00
24326;DHT22;12448;45.532;5.290;2023-11-18T01:56:29;8.00;94.20
24326;DHT22;12448;45.532;5.290;2023-11-18T01:58:57;8.00;94.40
24326;DHT22;12448;45.532;5.290;2023-11-18T02:01:26;7.70;94.50
24326;DHT22;12448;45.532;5.290;2023-11-18T02:03:54;7.80;94.80
24326;DHT22;12448;45.532;5.290;2023-11-18T02:06:20;8.10;94.90
24326;DHT22;12448;45.532;5.290;2023-11-18T02:08:46;7.80;94.80
24326;DHT22;12448;45.532;5.290;2023-11-18T02:12:16;7.60;94.90
24326;DHT22;12448;45.532;5.290;2023-11-18T02:14:13;7.60;95.10
24326;DHT22;12448;45.532;5.290;2023-11-18T02:16:40;7.90;95.30
24326;DHT22;12448;45.532;5.290;2023-11-18T02:19:21;7.80;95.20
24326;DHT22;12448;45.532;5.290;2023-11-18T02:21:48;7.80;95.10
24326;DHT22;12448;45.532;5.290;2023-11-18T02:24:28;8.30;95.10
24326;DHT22;12448;45.532;5.290;2023-11-18T02:27:00;8.00;94.90
24326;DHT22;12448;45.532;5.290;2023-11-18T02:29:49;8.30;94.90
24326;DHT22;12448;45.532;5.290;2023-11-18T02:32:36;7.90;94.70
24326;DHT22;12448;45.532;5.290;2023-11-18T02:35:24;7.90;94.50
24326;DHT22;12448;45.532;5.290;2023-11-18T02:37:54;7.90;94.40
24326;DHT22;12448;45.532;5.290;2023-11-18T02:40:28;7.90;94.30
24326;DHT22;12448;45.532;5.290;2023-11-18T02:42:58;7.80;94.10
24326;DHT22;12448;45.532;5.290;2023-11-18T02:45:24;7.80;94.50
24326;DHT22;12448;45.532;5.290;2023-11-18T02:47:51;7.70;94.30
24326;DHT22;12448;45.532;5.290;2023-11-18T02:50:17;8.10;94.50
24326;DHT22;12448;45.532;5.290;2023-11-18T02:52:44;7.60;94.40
24326;DHT22;12448;45.532;5.290;2023-11-18T02:55:10;7.60;94.40
24326;DHT22;12448;45.532;5.290;2023-11-18T02:57:37;7.60;94.50
24326;DHT22;12448;45.532;5.290;2023-11-18T03:00:07;7.80;94.60
24326;DHT22;12448;45.532;5.290;2023-11-18T03:02:42;7.70;94.50
24326;DHT22;12448;45.532;5.290;2023-11-18T03:05:08;7.70;94.50
24326;DHT22;12448;45.532;5.290;2023-11-18T03:07:43;8.20;94.60
24326;DHT22;12448;45.532;5.290;2023-11-18T03:10:10;7.60;94.50
24326;DHT22;12448;45.532;5.290;2023-11-18T03:12:38;7.60;94.50
24326;DHT22;12448;45.532;5.290;2023-11-18T03:15:07;7.70;94.80
24326;DHT22;12448;45.532;5.290;2023-11-18T03:17:34;7.70;94.50
24326;DHT22;12448;45.532;5.290;2023-11-18T03:20:00;7.70;94.50
24326;DHT22;12448;45.532;5.290;2023-11-18T03:22:26;7.70;94.50
24326;DHT22;12448;45.532;5.290;2023-11-18T03:24:52;7.90;94.50
24326;DHT22;12448;45.532;5.290;2023-11-18T03:27:17;7.70;94.40
24326;DHT22;12448;45.532;5.290;2023-11-18T03:29:43;7.70;94.50
24326;DHT22;12448;45.532;5.290;2023-11-18T03:32:11;8.10;94.60
24326;DHT22;12448;45.532;5.290;2023-11-18T03:34:38;7.80;94.70
24326;DHT22;12448;45.532;5.290;2023-11-18T03:37:04;7.70;94.70
24326;DHT22;12448;45.532;5.290;2023-11-18T03:39:29;7.60;94.60
24326;DHT22;12448;45.532;5.290;2023-11-18T03:41:56;8.10;94.80
24326;DHT22;12448;45.532;5.290;2023-11-18T03:44:22;7.60;94.60
24326;DHT22;12448;45.532;5.290;2023-11-18T03:46:49;8.00;94.80
24326;DHT22;12448;45.532;5.290;2023-11-18T03:49:15;7.60;94.80
24326;DHT22;12448;45.532;5.290;2023-11-18T03:51:41;7.70;95.00
24326;DHT22;12448;45.532;5.290;2023-11-18T03:54:06;7.50;94.90
24326;DHT22;12448;45.532;5.290;2023-11-18T03:56:34;7.40;94.60
24326;DHT22;12448;45.532;5.290;2023-11-18T03:58:59;7.30;94.50
24326;DHT22;12448;45.532;5.290;2023-11-18T04:01:26;7.30;94.70
24326;DHT22;12448;45.532;5.290;2023-11-18T04:03:54;7.10;94.80
24326;DHT22;12448;45.532;5.290;2023-11-18T04:06:21;7.40;95.20
24326;DHT22;12448;45.532;5.290;2023-11-18T04:08:48;7.10;95.30
24326;DHT22;12448;45.532;5.290;2023-11-18T04:11:14;7.20;95.30
24326;DHT22;12448;45.532;5.290;2023-11-18T04:13:44;7.30;95.20
24326;DHT22;12448;45.532;5.290;2023-11-18T04:16:11;7.30;95.20
24326;DHT22;12448;45.532;5.290;2023-11-18T04:18:44;7.40;95.20
24326;DHT22;12448;45.532;5.290;2023-11-18T04:21:11;7.40;95.10
24326;DHT22;12448;45.532;5.290;2023-11-18T04:23:37;7.40;95.00
24326;DHT22;12448;45.532;5.290;2023-11-18T04:26:04;7.50;94.90
24326;DHT22;12448;45.532;5.290;2023-11-18T04:28:31;7.40;94.90
24326;DHT22;12448;45.532;5.290;2023-11-18T04:30:56;7.40;94.80
24326;DHT22;12448;45.532;5.290;2023-11-18T04:33:22;7.40;94.80
24326;DHT22;12448;45.532;5.290;2023-11-18T04:35:50;7.40;94.70
24326;DHT22;12448;45.532;5.290;2023-11-18T04:38:16;7.40;94.80
24326;DHT22;12448;45.532;5.290;2023-11-18T04:40:42;7.30;94.80
24326;DHT22;12448;45.532;5.290;2023-11-18T04:43:10;7.40;94.90
24326;DHT22;12448;45.532;5.290;2023-11-18T04:45:37;8.00;95.10
24326;DHT22;12448;45.532;5.290;2023-11-18T04:48:03;7.80;95.10
24326;DHT22;12448;45.532;5.290;2023-11-18T04:50:32;7.50;95.10
24326;DHT22;12448;45.532;5.290;2023-11-18T04:52:58;7.60;95.20
24326;DHT22;12448;45.532;5.290;2023-11-18T04:55:24;7.60;95.20
24326;DHT22;12448;45.532;5.290;2023-11-18T04:57:53;7.50;95.00
24326;DHT22;12448;45.532;5.290;2023-11-18T05:00:18;8.00;95.20
24326;DHT22;12448;45.532;5.290;2023-11-18T05:02:45;7.50;95.30
24326;DHT22;12448;45.532;5.290;2023-11-18T05:05:17;7.50;95.30
24326;DHT22;12448;45.532;5.290;2023-11-18T05:07:43;7.50;95.40
24326;DHT22;12448;45.532;5.290;2023-11-18T05:10:12;7.60;95.60
24326;DHT22;12448;45.532;5.290;2023-11-18T05:12:40;7.60;95.70
24326;DHT22;12448;45.532;5.290;2023-11-18T05:15:09;7.60;95.70
24326;DHT22;12448;45.532;5.290;2023-11-18T05:17:35;7.60;95.60
24326;DHT22;12448;45.532;5.290;2023-11-18T05:20:05;8.00;95.70
24326;DHT22;12448;45.532;5.290;2023-11-18T05:22:34;7.60;95.50
24326;DHT22;12448;45.532;5.290;2023-11-18T05:25:02;7.90;95.60
24326;DHT22;12448;45.532;5.290;2023-11-18T05:27:30;7.70;95.60
24326;DHT22;12448;45.532;5.290;2023-11-18T05:29:57;7.70;95.70
24326;DHT22;12448;45.532;5.290;2023-11-18T05:32:27;7.70;95.60
24326;DHT22;12448;45.532;5.290;2023-11-18T05:34:53;7.70;95.60
24326;DHT22;12448;45.532;5.290;2023-11-18T05:37:21;7.80;95.70
24326;DHT22;12448;45.532;5.290;2023-11-18T05:39:47;8.20;95.90
24326;DHT22;12448;45.532;5.290;2023-11-18T05:42:14;7.90;95.90
24326;DHT22;12448;45.532;5.290;2023-11-18T05:44:41;7.70;95.80
24326;DHT22;12448;45.532;5.290;2023-11-18T05:47:08;8.10;95.90
24326;DHT22;12448;45.532;5.290;2023-11-18T05:49:37;7.70;95.70
24326;DHT22;12448;45.532;5.290;2023-11-18T05:52:04;7.70;95.60
24326;DHT22;12448;45.532;5.290;2023-11-18T05:54:30;7.70;95.60
24326;DHT22;12448;45.532;5.290;2023-11-18T05:56:56;7.70;95.60
24326;DHT22;12448;45.532;5.290;2023-11-18T05:59:21;7.70;95.50
24326;DHT22;12448;45.532;5.290;2023-11-18T06:01:49;8.20;95.60
24326;DHT22;12448;45.532;5.290;2023-11-18T06:04:15;7.60;95.30
24326;DHT22;12448;45.532;5.290;2023-11-18T06:06:41;7.60;95.20
24326;DHT22;12448;45.532;5.290;2023-11-18T06:09:07;8.20;95.40
24326;DHT22;12448;45.532;5.290;2023-11-18T06:11:43;7.50;95.20
24326;DHT22;12448;45.532;5.290;2023-11-18T06:14:10;7.60;95.20
24326;DHT22;12448;45.532;5.290;2023-11-18T06:16:38;7.60;95.20
24326;DHT22;12448;45.532;5.290;2023-11-18T06:19:06;8.00;95.30
24326;DHT22;12448;45.532;5.290;2023-11-18T06:21:32;7.60;95.20
24326;DHT22;12448;45.532;5.290;2023-11-18T06:23:58;7.60;95.20
24326;DHT22;12448;45.532;5.290;2023-11-18T06:26:25;7.70;95.20
24326;DHT22;12448;45.532;5.290;2023-11-18T06:28:55;7.60;95.20
24326;DHT22;12448;45.532;5.290;2023-11-18T06:31:25;7.60;95.20
24326;DHT22;12448;45.532;5.290;2023-11-18T06:33:51;7.60;95.20
24326;DHT22;12448;45.532;5.290;2023-11-18T06:36:18;8.00;95.20
24326;DHT22;12448;45.532;5.290;2023-11-18T06:38:51;8.20;95.30
24326;DHT22;12448;45.532;5.290;2023-11-18T06:41:19;7.70;95.10
24326;DHT22;12448;45.532;5.290;2023-11-18T06:43:46;7.70;95.10
24326;DHT22;12448;45.532;5.290;2023-11-18T06:46:22;8.00;95.20
24326;DHT22;12448;45.532;5.290;2023-11-18T06:48:48;7.80;95.00
24326;DHT22;12448;45.532;5.290;2023-11-18T06:51:15;7.80;95.10
24326;DHT22;12448;45.532;5.290;2023-11-18T06:53:42;7.80;95.00
24326;DHT22;12448;45.532;5.290;2023-11-18T06:56:08;8.20;95.00
24326;DHT22;12448;45.532;5.290;2023-11-18T06:58:38;7.90;94.80
24326;DHT22;12448;45.532;5.290;2023-11-18T07:01:12;7.90;94.80
24326;DHT22;12448;45.532;5.290;2023-11-18T07:03:43;7.90;94.80
24326;DHT22;12448;45.532;5.290;2023-11-18T07:06:09;8.50;94.90
24326;DHT22;12448;45.532;5.290;2023-11-18T07:08:39;8.40;94.90
24326;DHT22;12448;45.532;5.290;2023-11-18T07:11:05;8.00;94.80
24326;DHT22;12448;45.532;5.290;2023-11-18T07:13:32;8.00;94.80
24326;DHT22;12448;45.532;5.290;2023-11-18T07:16:00;8.40;94.90
24326;DHT22;12448;45.532;5.290;2023-11-18T07:18:28;8.00;94.80
24326;DHT22;12448;45.532;5.290;2023-11-18T07:20:59;8.00;94.80
24326;DHT22;12448;45.532;5.290;2023-11-18T07:23:25;8.10;94.80
24326;DHT22;12448;45.532;5.290;2023-11-18T07:25:51;8.50;94.80
24326;DHT22;12448;45.532;5.290;2023-11-18T07:28:17;8.20;94.60
24326;DHT22;12448;45.532;5.290;2023-11-18T07:30:43;8.20;94.60
24326;DHT22;12448;45.532;5.290;2023-11-18T07:33:16;8.20;94.50
24326;DHT22;12448;45.532;5.290;2023-11-18T07:35:43;8.30;94.50
24326;DHT22;12448;45.532;5.290;2023-11-18T07:38:09;8.10;94.40
24326;DHT22;12448;45.532;5.290;2023-11-18T07:40:36;8.30;94.40
24326;DHT22;12448;45.532;5.290;2023-11-18T07:43:04;8.40;94.40
24326;DHT22;12448;45.532;5.290;2023-11-18T07:45:36;8.40;94.40
24326;DHT22;12448;45.532;5.290;2023-11-18T07:48:09;8.40;94.40
24326;DHT22;12448;45.532;5.290;2023-11-18T07:50:41;8.60;94.40
24326;DHT22;12448;45.532;5.290;2023-11-18T07:53:07;8.50;94.40
24326;DHT22;12448;45.532;5.290;2023-11-18T07:55:33;8.60;94.40
24326;DHT22;12448;45.532;5.290;2023-11-18T07:58:03;8.60;94.30
24326;DHT22;12448;45.532;5.290;2023-11-18T08:00:29;8.80;94.40
24326;DHT22;12448;45.532;5.290;2023-11-18T08:02:59;8.70;94.20
24326;DHT22;12448;45.532;5.290;2023-11-18T08:05:26;8.70;94.30
24326;DHT22;12448;45.532;5.290;2023-11-18T08:07:58;8.80;94.40
24326;DHT22;12448;45.532;5.290;2023-11-18T08:10:24;8.70;94.40
24326;DHT22;12448;45.532;5.290;2023-11-18T08:12:51;9.20;94.50
24326;DHT22;12448;45.532;5.290;2023-11-18T08:15:20;9.00;94.40
24326;DHT22;12448;45.532;5.290;2023-11-18T08:17:57;9.20;94.60
24326;DHT22;12448;45.532;5.290;2023-11-18T08:20:26;8.90;94.50
24326;DHT22;12448;45.532;5.290;2023-11-18T08:22:52;8.90;94.40
24326;DHT22;12448;45.532;5.290;2023-11-18T08:25:21;8.90;94.40
24326;DHT22;12448;45.532;5.290;2023-11-18T08:27:47;9.00;94.40
24326;DHT22;12448;45.532;5.290;2023-11-18T08:30:16;9.50;94.60
24326;DHT22;12448;45.532;5.290;2023-11-18T08:32:47;9.10;94.40
24326;DHT22;12448;45.532;5.290;2023-11-18T08:35:14;9.10;94.50
24326;DHT22;12448;45.532;5.290;2023-11-18T08:37:44;9.20;94.40
24326;DHT22;12448;45.532;5.290;2023-11-18T08:40:11;9.20;94.20
24326;DHT22;12448;45.532;5.290;2023-11-18T08:42:41;9.20;94.10
24326;DHT22;12448;45.532;5.290;2023-11-18T08:45:23;9.30;94.10
24326;DHT22;12448;45.532;5.290;2023-11-18T08:48:15;9.30;94.10
24326;DHT22;12448;45.532;5.290;2023-11-18T08:51:04;9.30;94.20
24326;DHT22;12448;45.532;5.290;2023-11-18T08:53:46;9.30;94.10
24326;DHT22;12448;45.532;5.290;2023-11-18T08:56:30;9.40;94.10
24326;DHT22;12448;45.532;5.290;2023-11-18T08:59:00;9.50;94.20
24326;DHT22;12448;45.532;5.290;2023-11-18T09:01:34;9.50;94.10
24326;DHT22;12448;45.532;5.290;2023-11-18T09:07:02;9.40;93.90
24326;DHT22;12448;45.532;5.290;2023-11-18T09:09:41;9.60;93.90
24326;DHT22;12448;45.532;5.290;2023-11-18T09:12:16;9.60;93.80
24326;DHT22;12448;45.532;5.290;2023-11-18T09:14:45;9.60;93.80
24326;DHT22;12448;45.532;5.290;2023-11-18T09:17:13;9.70;93.80
24326;DHT22;12448;45.532;5.290;2023-11-18T09:19:40;9.60;93.80
24326;DHT22;12448;45.532;5.290;2023-11-18T09:22:07;9.60;93.80
24326;DHT22;12448;45.532;5.290;2023-11-18T09:24:41;10.20;93.80
24326;DHT22;12448;45.532;5.290;2023-11-18T09:27:07;9.70;93.70
24326;DHT22;12448;45.532;5.290;2023-11-18T09:29:34;9.70;93.70
24326;DHT22;12448;45.532;5.290;2023-11-18T09:32:00;9.70;93.60
24326;DHT22;12448;45.532;5.290;2023-11-18T09:34:31;9.70;93.60
24326;DHT22;12448;45.532;5.290;2023-11-18T09:36:58;9.80;93.70
24326;DHT22;12448;45.532;5.290;2023-11-18T09:39:24;9.80;93.70
24326;DHT22;12448;45.532;5.290;2023-11-18T09:42:13;9.80;93.90
24326;DHT22;12448;45.532;5.290;2023-11-18T09:44:44;9.80;93.60
24326;DHT22;12448;45.532;5.290;2023-11-18T09:47:15;9.80;93.60
24326;DHT22;12448;45.532;5.290;2023-11-18T09:49:52;10.10;93.70
24326;DHT22;12448;45.532;5.290;2023-11-18T09:52:21;9.90;93.60
24326;DHT22;12448;45.532;5.290;2023-11-18T09:55:03;10.20;93.50
24326;DHT22;12448;45.532;5.290;2023-11-18T09:57:55;10.00;93.40
24326;DHT22;12448;45.532;5.290;2023-11-18T10:00:24;10.10;93.40
24326;DHT22;12448;45.532;5.290;2023-11-18T10:02:53;10.40;93.40
24326;DHT22;12448;45.532;5.290;2023-11-18T10:05:21;10.40;93.30
24326;DHT22;12448;45.532;5.290;2023-11-18T10:07:48;10.30;93.20
24326;DHT22;12448;45.532;5.290;2023-11-18T10:10:15;10.20;93.00
24326;DHT22;12448;45.532;5.290;2023-11-18T10:12:44;10.20;92.80
24326;DHT22;12448;45.532;5.290;2023-11-18T10:15:17;10.20;92.80
24326;DHT22;12448;45.532;5.290;2023-11-18T10:17:44;10.20;92.80
24326;DHT22;12448;45.532;5.290;2023-11-18T10:20:46;10.20;92.60
24326;DHT22;12448;45.532;5.290;2023-11-18T10:23:16;10.10;92.50
24326;DHT22;12448;45.532;5.290;2023-11-18T10:25:45;10.10;92.50
24326;DHT22;12448;45.532;5.290;2023-11-18T10:28:35;10.10;92.50
24326;DHT22;12448;45.532;5.290;2023-11-18T10:31:06;10.40;92.40
24326;DHT22;12448;45.532;5.290;2023-11-18T10:33:35;10.10;92.10
24326;DHT22;12448;45.532;5.290;2023-11-18T10:36:30;10.10;92.10
24326;DHT22;12448;45.532;5.290;2023-11-18T10:38:58;10.10;92.10
24326;DHT22;12448;45.532;5.290;2023-11-18T10:41:26;10.00;92.00
24326;DHT22;12448;45.532;5.290;2023-11-18T10:44:12;10.60;92.20
24326;DHT22;12448;45.532;5.290;2023-11-18T10:46:50;10.00;92.00
24326;DHT22;12448;45.532;5.290;2023-11-18T10:49:16;10.20;92.10
24326;DHT22;12448;45.532;5.290;2023-11-18T10:51:46;10.10;92.00
24326;DHT22;12448;45.532;5.290;2023-11-18T10:54:13;10.10;91.90
24326;DHT22;12448;45.532;5.290;2023-11-18T10:56:51;10.10;91.80
24326;DHT22;12448;45.532;5.290;2023-11-18T10:59:27;10.30;91.80
24326;DHT22;12448;45.532;5.290;2023-11-18T11:01:53;10.30;92.20
24326;DHT22;12448;45.532;5.290;2023-11-18T11:04:23;10.00;91.90
24326;DHT22;12448;45.532;5.290;2023-11-18T11:06:49;10.40;92.00
24326;DHT22;12448;45.532;5.290;2023-11-18T11:09:28;10.00;91.90
24326;DHT22;12448;45.532;5.290;2023-11-18T11:12:09;10.00;92.10
24326;DHT22;12448;45.532;5.290;2023-11-18T11:15:08;10.00;92.20
24326;DHT22;12448;45.532;5.290;2023-11-18T11:17:41;10.00;92.20
24326;DHT22;12448;45.532;5.290;2023-11-18T11:20:18;9.90;92.30
24326;DHT22;12448;45.532;5.290;2023-11-18T11:31:21;9.90;92.70
24326;DHT22;12448;45.532;5.290;2023-11-18T11:34:02;9.90;92.90
24326;DHT22;12448;45.532;5.290;2023-11-18T11:36:37;9.90;93.00
24326;DHT22;12448;45.532;5.290;2023-11-18T11:39:09;9.90;93.10
24326;DHT22;12448;45.532;5.290;2023-11-18T11:41:45;9.90;93.10
24326;DHT22;12448;45.532;5.290;2023-11-18T11:44:14;9.90;93.40
24326;DHT22;12448;45.532;5.290;2023-11-18T11:46:40;10.30;93.20
24326;DHT22;12448;45.532;5.290;2023-11-18T11:49:09;10.00;93.10
24326;DHT22;12448;45.532;5.290;2023-11-18T11:54:52;10.50;93.10
24326;DHT22;12448;45.532;5.290;2023-11-18T11:57:22;10.20;93.10
24326;DHT22;12448;45.532;5.290;2023-11-18T12:02:20;10.00;93.20
24326;DHT22;12448;45.532;5.290;2023-11-18T12:04:59;10.00;93.50
24326;DHT22;12448;45.532;5.290;2023-11-18T12:07:25;10.00;93.00
24326;DHT22;12448;45.532;5.290;2023-11-18T12:10:01;10.00;93.00
24326;DHT22;12448;45.532;5.290;2023-11-18T12:12:35;10.00;93.00
24326;DHT22;12448;45.532;5.290;2023-11-18T12:15:02;10.10;93.10
24326;DHT22;12448;45.532;5.290;2023-11-18T12:20:40;10.10;93.20
24326;DHT22;12448;45.532;5.290;2023-11-18T12:23:08;10.20;93.20
24326;DHT22;12448;45.532;5.290;2023-11-18T12:26:00;10.40;93.20
24326;DHT22;12448;45.532;5.290;2023-11-18T12:28:32;10.30;93.20
24326;DHT22;12448;45.532;5.290;2023-11-18T12:31:03;10.30;93.20
24326;DHT22;12448;45.532;5.290;2023-11-18T12:36:39;10.40;93.20
24326;DHT22;12448;45.532;5.290;2023-11-18T12:42:53;10.50;93.20
24326;DHT22;12448;45.532;5.290;2023-11-18T12:48:38;10.70;92.90
24326;DHT22;12448;45.532;5.290;2023-11-18T12:51:13;10.60;92.90
24326;DHT22;12448;45.532;5.290;2023-11-18T12:53:48;10.70;92.90
24326;DHT22;12448;45.532;5.290;2023-11-18T12:56:21;10.60;93.00
24326;DHT22;12448;45.532;5.290;2023-11-18T12:58:48;10.70;93.00
24326;DHT22;12448;45.532;5.290;2023-11-18T13:01:15;10.70;93.10
24326;DHT22;12448;45.532;5.290;2023-11-18T13:03:41;10.60;93.10
24326;DHT22;12448;45.532;5.290;2023-11-18T13:06:13;10.80;93.10
24326;DHT22;12448;45.532;5.290;2023-11-18T13:08:40;10.90;92.90
24326;DHT22;12448;45.532;5.290;2023-11-18T13:11:06;10.90;92.90
24326;DHT22;12448;45.532;5.290;2023-11-18T13:13:55;11.00;92.90
24326;DHT22;12448;45.532;5.290;2023-11-18T13:16:21;11.10;92.90
24326;DHT22;12448;45.532;5.290;2023-11-18T13:19:05;11.10;92.90
24326;DHT22;12448;45.532;5.290;2023-11-18T13:22:15;11.10;93.10
24326;DHT22;12448;45.532;5.290;2023-11-18T13:24:44;11.20;92.70
24326;DHT22;12448;45.532;5.290;2023-11-18T13:27:16;11.20;92.70
24326;DHT22;12448;45.532;5.290;2023-11-18T13:29:47;11.40;92.80
24326;DHT22;12448;45.532;5.290;2023-11-18T13:32:18;11.30;92.60
24326;DHT22;12448;45.532;5.290;2023-11-18T13:34:48;11.30;92.60
24326;DHT22;12448;45.532;5.290;2023-11-18T13:37:14;11.30;92.60
24326;DHT22;12448;45.532;5.290;2023-11-18T13:39:43;11.30;92.60
24326;DHT22;12448;45.532;5.290;2023-11-18T13:42:20;11.30;92.70
24326;DHT22;12448;45.532;5.290;2023-11-18T13:44:46;11.40;92.70
24326;DHT22;12448;45.532;5.290;2023-11-18T13:47:16;11.40;92.70
24326;DHT22;12448;45.532;5.290;2023-11-18T13:49:42;11.50;92.80
24326;DHT22;12448;45.532;5.290;2023-11-18T13:52:08;11.50;92.80
24326;DHT22;12448;45.532;5.290;2023-11-18T13:54:37;11.50;92.70
24326;DHT22;12448;45.532;5.290;2023-11-18T13:57:04;11.50;92.70
24326;DHT22;12448;45.532;5.290;2023-11-18T13:59:34;11.50;92.80
24326;DHT22;12448;45.532;5.290;2023-11-18T14:02:09;11.60;92.80
24326;DHT22;12448;45.532;5.290;2023-11-18T14:04:35;11.60;92.80
24326;DHT22;12448;45.532;5.290;2023-11-18T14:07:08;11.60;92.80
24326;DHT22;12448;45.532;5.290;2023-11-18T14:09:36;11.50;92.80
24326;DHT22;12448;45.532;5.290;2023-11-18T14:12:06;11.50;92.90
24326;DHT22;12448;45.532;5.290;2023-11-18T14:14:32;11.50;92.90
24326;DHT22;12448;45.532;5.290;2023-11-18T14:16:58;11.90;93.00
24326;DHT22;12448;45.532;5.290;2023-11-18T14:19:28;11.50;92.90
24326;DHT22;12448;45.532;5.290;2023-11-18T14:21:55;11.80;93.00
24326;DHT22;12448;45.532;5.290;2023-11-18T14:24:21;11.50;93.00
24326;DHT22;12448;45.532;5.290;2023-11-18T14:26:54;11.50;93.10
24326;DHT22;12448;45.532;5.290;2023-11-18T14:29:20;11.50;93.10
24326;DHT22;12448;45.532;5.290;2023-11-18T14:31:46;11.50;93.10
24326;DHT22;12448;45.532;5.290;2023-11-18T14:34:18;11.50;93.20
24326;DHT22;12448;45.532;5.290;2023-11-18T14:36:47;11.50;93.30
24326;DHT22;12448;45.532;5.290;2023-11-18T14:39:12;11.60;93.30
24326;DHT22;12448;45.532;5.290;2023-11-18T14:41:49;11.50;93.40
24326;DHT22;12448;45.532;5.290;2023-11-18T14:44:35;11.50;93.30
24326;DHT22;12448;45.532;5.290;2023-11-18T14:47:01;11.50;93.40
24326;DHT22;12448;45.532;5.290;2023-11-18T14:49:42;11.50;93.40
24326;DHT22;12448;45.532;5.290;2023-11-18T14:52:07;11.50;93.30
24326;DHT22;12448;45.532;5.290;2023-11-18T14:54:39;11.50;93.20
24326;DHT22;12448;45.532;5.290;2023-11-18T14:57:14;11.50;93.20
24326;DHT22;12448;45.532;5.290;2023-11-18T14:59:41;11.50;93.20
24326;DHT22;12448;45.532;5.290;2023-11-18T15:02:19;11.40;93.10
24326;DHT22;12448;45.532;5.290;2023-11-18T15:04:45;11.20;93.10
24326;DHT22;12448;45.532;5.290;2023-11-18T15:07:11;11.30;93.20
24326;DHT22;12448;45.532;5.290;2023-11-18T15:09:39;11.30;93.30
24326;DHT22;12448;45.532;5.290;2023-11-18T15:12:06;11.10;93.20
24326;DHT22;12448;45.532;5.290;2023-11-18T15:14:34;11.20;93.30
24326;DHT22;12448;45.532;5.290;2023-11-18T15:17:00;11.20;93.20
24326;DHT22;12448;45.532;5.290;2023-11-18T15:19:29;11.10;93.20
24326;DHT22;12448;45.532;5.290;2023-11-18T15:21:54;11.10;93.20
24326;DHT22;12448;45.532;5.290;2023-11-18T15:24:20;11.20;93.40
24326;DHT22;12448;45.532;5.290;2023-11-18T15:27:03;11.10;93.40
24326;DHT22;12448;45.532;5.290;2023-11-18T15:29:46;11.00;93.40
24326;DHT22;12448;45.532;5.290;2023-11-18T15:32:16;11.10;93.50
24326;DHT22;12448;45.532;5.290;2023-11-18T15:34:42;11.00;93.60
24326;DHT22;12448;45.532;5.290;2023-11-18T15:37:08;10.90;93.60
24326;DHT22;12448;45.532;5.290;2023-11-18T15:39:34;11.00;93.70
24326;DHT22;12448;45.532;5.290;2023-11-18T15:42:00;10.90;93.80
24326;DHT22;12448;45.532;5.290;2023-11-18T15:44:27;11.50;94.10
24326;DHT22;12448;45.532;5.290;2023-11-18T15:46:59;10.90;94.00
24326;DHT22;12448;45.532;5.290;2023-11-18T15:49:25;10.90;94.10
24326;DHT22;12448;45.532;5.290;2023-11-18T15:51:56;10.90;94.10
24326;DHT22;12448;45.532;5.290;2023-11-18T15:54:22;10.80;94.10
24326;DHT22;12448;45.532;5.290;2023-11-18T15:56:48;10.90;94.10
24326;DHT22;12448;45.532;5.290;2023-11-18T15:59:13;10.90;94.10
24326;DHT22;12448;45.532;5.290;2023-11-18T16:01:39;11.30;94.20
24326;DHT22;12448;45.532;5.290;2023-11-18T16:04:34;10.80;94.00
24326;DHT22;12448;45.532;5.290;2023-11-18T16:07:00;10.90;94.10
24326;DHT22;12448;45.532;5.290;2023-11-18T16:09:26;10.70;94.40
24326;DHT22;12448;45.532;5.290;2023-11-18T16:11:54;10.70;94.10
24326;DHT22;12448;45.532;5.290;2023-11-18T16:14:26;10.90;94.20
24326;DHT22;12448;45.532;5.290;2023-11-18T16:16:58;10.80;94.20
24326;DHT22;12448;45.532;5.290;2023-11-18T16:19:24;11.10;94.30
24326;DHT22;12448;45.532;5.290;2023-11-18T16:21:49;10.60;94.20
24326;DHT22;12448;45.532;5.290;2023-11-18T16:24:17;10.60;94.20
24326;DHT22;12448;45.532;5.290;2023-11-18T16:26:43;10.70;94.30